createdAt,value
2018-09-13T00:00:06.443Z,0
2018-09-13T00:00:18.991Z,0
2018-09-13T00:00:31.480Z,0
2018-09-13T00:00:43.903Z,0
2018-09-13T00:00:56.330Z,0
2018-09-13T00:01:08.757Z,0
2018-09-13T00:01:21.162Z,1.609344
2018-09-13T00:01:33.561Z,0
2018-09-13T00:01:45.981Z,3.218688
2018-09-13T00:01:58.408Z,3.218688
2018-09-13T00:02:10.867Z,3.218688
2018-09-13T00:02:23.287Z,8.04672
2018-09-13T00:02:35.707Z,3.218688
2018-09-13T00:02:48.132Z,6.437376
2018-09-13T00:03:00.532Z,1.609344
2018-09-13T00:03:12.926Z,0
2018-09-13T00:03:25.627Z,1.609344
2018-09-13T00:03:38.059Z,1.609344
2018-09-13T00:03:50.459Z,1.609344
2018-09-13T00:04:02.867Z,1.609344
2018-09-13T00:04:15.280Z,1.609344
2018-09-13T00:04:27.690Z,1.609344
2018-09-13T00:04:40.081Z,3.218688
2018-09-13T00:04:52.553Z,1.609344
2018-09-13T00:05:04.965Z,0
2018-09-13T00:05:17.379Z,1.609344
2018-09-13T00:05:29.778Z,1.609344
2018-09-13T00:05:42.287Z,1.609344
2018-09-13T00:05:55.149Z,1.609344
2018-09-13T00:06:08.101Z,0
2018-09-13T00:06:20.529Z,0
2018-09-13T00:06:32.958Z,1.609344
2018-09-13T00:06:45.405Z,1.609344
2018-09-13T00:06:57.816Z,4.828032
2018-09-13T00:07:10.244Z,4.828032
2018-09-13T00:07:22.672Z,3.218688
2018-09-13T00:07:35.117Z,6.437376
2018-09-13T00:07:47.818Z,6.437376
2018-09-13T00:08:00.251Z,6.437376
2018-09-13T00:08:12.664Z,3.218688
2018-09-13T00:08:25.094Z,3.218688
2018-09-13T00:08:37.501Z,1.609344
2018-09-13T00:08:49.925Z,3.218688
2018-09-13T00:09:02.332Z,3.218688
2018-09-13T00:09:14.736Z,3.218688
2018-09-13T00:09:27.242Z,1.609344
2018-09-13T00:09:39.675Z,3.218688
2018-09-13T00:09:52.488Z,3.218688
2018-09-13T00:10:04.923Z,8.04672
2018-09-13T00:10:17.339Z,4.828032
2018-09-13T00:10:29.843Z,6.437376
2018-09-13T00:10:42.293Z,3.218688
2018-09-13T00:10:54.693Z,6.437376
2018-09-13T00:11:07.108Z,8.04672
2018-09-13T00:11:19.761Z,8.04672
2018-09-13T00:11:32.235Z,8.04672
2018-09-13T00:11:44.803Z,6.437376
2018-09-13T00:11:57.210Z,8.04672
2018-09-13T00:12:09.734Z,8.04672
2018-09-13T00:12:22.142Z,3.218688
2018-09-13T00:12:34.551Z,6.437376
2018-09-13T00:12:47.086Z,6.437376
2018-09-13T00:12:59.499Z,8.04672
2018-09-13T00:13:11.920Z,9.656064
2018-09-13T00:13:24.343Z,6.437376
2018-09-13T00:13:36.742Z,9.656064
2018-09-13T00:13:49.148Z,6.437376
2018-09-13T00:14:01.581Z,3.218688
2018-09-13T00:14:14.087Z,3.218688
2018-09-13T00:14:26.479Z,3.218688
2018-09-13T00:14:38.894Z,4.828032
2018-09-13T00:14:51.707Z,3.218688
2018-09-13T00:15:04.165Z,1.609344
2018-09-13T00:15:16.554Z,1.609344
2018-09-13T00:15:29.091Z,1.609344
2018-09-13T00:15:41.512Z,3.218688
2018-09-13T00:15:53.909Z,8.04672
2018-09-13T00:16:06.310Z,3.218688
2018-09-13T00:16:18.721Z,1.609344
2018-09-13T00:16:31.116Z,3.218688
2018-09-13T00:16:43.524Z,1.609344
2018-09-13T00:16:55.936Z,3.218688
2018-09-13T00:17:08.353Z,6.437376
2018-09-13T00:17:20.767Z,1.609344
2018-09-13T00:17:33.170Z,3.218688
2018-09-13T00:17:45.584Z,3.218688
2018-09-13T00:17:57.994Z,1.609344
2018-09-13T00:18:10.388Z,4.828032
2018-09-13T00:18:22.808Z,1.609344
2018-09-13T00:18:35.259Z,1.609344
2018-09-13T00:18:47.678Z,1.609344
2018-09-13T00:19:00.120Z,1.609344
2018-09-13T00:19:12.530Z,1.609344
2018-09-13T00:19:24.937Z,1.609344
2018-09-13T00:19:37.345Z,3.218688
2018-09-13T00:19:49.788Z,1.609344
2018-09-13T00:20:02.199Z,0
2018-09-13T00:20:14.659Z,1.609344
2018-09-13T00:20:27.126Z,0
2018-09-13T00:20:39.523Z,0
2018-09-13T00:20:51.958Z,0
2018-09-13T00:21:04.684Z,1.609344
2018-09-13T00:21:17.098Z,0
2018-09-13T00:21:29.497Z,0
2018-09-13T00:21:41.927Z,0
2018-09-13T00:21:54.366Z,1.609344
2018-09-13T00:22:06.773Z,3.218688
2018-09-13T00:22:19.175Z,1.609344
2018-09-13T00:22:31.582Z,1.609344
2018-09-13T00:22:43.973Z,4.828032
2018-09-13T00:22:56.371Z,3.218688
2018-09-13T00:23:08.784Z,3.218688
2018-09-13T00:23:21.314Z,1.609344
2018-09-13T00:23:33.732Z,1.609344
2018-09-13T00:23:46.147Z,1.609344
2018-09-13T00:23:58.731Z,0
2018-09-13T00:24:11.296Z,1.609344
2018-09-13T00:24:23.708Z,1.609344
2018-09-13T00:24:36.129Z,1.609344
2018-09-13T00:24:48.565Z,1.609344
2018-09-13T00:25:00.968Z,3.218688
2018-09-13T00:25:13.400Z,1.609344
2018-09-13T00:25:25.805Z,3.218688
2018-09-13T00:25:38.225Z,0
2018-09-13T00:25:50.633Z,1.609344
2018-09-13T00:26:03.048Z,1.609344
2018-09-13T00:26:15.684Z,3.218688
2018-09-13T00:26:28.091Z,1.609344
2018-09-13T00:26:40.496Z,1.609344
2018-09-13T00:26:52.920Z,3.218688
2018-09-13T00:27:05.322Z,1.609344
2018-09-13T00:27:17.727Z,1.609344
2018-09-13T00:27:30.114Z,0
2018-09-13T00:27:42.558Z,0
2018-09-13T00:27:54.950Z,0
2018-09-13T00:28:07.521Z,0
2018-09-13T00:28:19.978Z,0
2018-09-13T00:28:32.401Z,0
2018-09-13T00:28:44.818Z,0
2018-09-13T00:28:57.227Z,0
2018-09-13T00:29:09.617Z,0
2018-09-13T00:29:22.032Z,1.609344
2018-09-13T00:29:34.443Z,3.218688
2018-09-13T00:29:46.847Z,4.828032
2018-09-13T00:29:59.253Z,6.437376
2018-09-13T00:30:11.666Z,4.828032
2018-09-13T00:30:24.078Z,1.609344
2018-09-13T00:30:36.503Z,6.437376
2018-09-13T00:30:48.948Z,3.218688
2018-09-13T00:31:01.366Z,3.218688
2018-09-13T00:31:14.213Z,4.828032
2018-09-13T00:31:26.628Z,6.437376
2018-09-13T00:31:39.054Z,4.828032
2018-09-13T00:31:51.450Z,8.04672
2018-09-13T00:32:03.859Z,9.656064
2018-09-13T00:32:16.400Z,8.04672
2018-09-13T00:32:28.800Z,9.656064
2018-09-13T00:32:41.195Z,6.437376
2018-09-13T00:32:53.623Z,3.218688
2018-09-13T00:33:06.044Z,6.437376
2018-09-13T00:33:18.448Z,1.609344
2018-09-13T00:33:30.855Z,8.04672
2018-09-13T00:33:43.364Z,9.656064
2018-09-13T00:33:55.773Z,8.04672
2018-09-13T00:34:08.179Z,8.04672
2018-09-13T00:34:20.558Z,3.218688
2018-09-13T00:34:32.974Z,6.437376
2018-09-13T00:34:45.381Z,8.04672
2018-09-13T00:34:57.805Z,9.656064
2018-09-13T00:35:10.210Z,8.04672
2018-09-13T00:35:22.616Z,3.218688
2018-09-13T00:35:35.005Z,8.04672
2018-09-13T00:35:47.408Z,6.437376
2018-09-13T00:35:59.847Z,6.437376
2018-09-13T00:36:12.283Z,3.218688
2018-09-13T00:36:24.714Z,1.609344
2018-09-13T00:36:37.217Z,3.218688
2018-09-13T00:36:49.615Z,1.609344
2018-09-13T00:37:02.031Z,3.218688
2018-09-13T00:37:14.428Z,3.218688
2018-09-13T00:37:26.814Z,6.437376
2018-09-13T00:37:39.265Z,8.04672
2018-09-13T00:37:51.666Z,8.04672
2018-09-13T00:38:04.140Z,6.437376
2018-09-13T00:38:16.538Z,3.218688
2018-09-13T00:38:29.009Z,9.656064
2018-09-13T00:38:41.490Z,8.04672
2018-09-13T00:38:53.890Z,8.04672
2018-09-13T00:39:06.292Z,8.04672
2018-09-13T00:39:18.694Z,6.437376
2018-09-13T00:39:31.097Z,3.218688
2018-09-13T00:39:43.559Z,3.218688
2018-09-13T00:39:55.964Z,1.609344
2018-09-13T00:40:08.361Z,1.609344
2018-09-13T00:40:20.874Z,1.609344
2018-09-13T00:40:33.413Z,3.218688
2018-09-13T00:40:45.805Z,4.828032
2018-09-13T00:40:58.207Z,6.437376
2018-09-13T00:41:10.592Z,8.04672
2018-09-13T00:41:22.992Z,8.04672
2018-09-13T00:41:35.384Z,1.609344
2018-09-13T00:41:47.785Z,1.609344
2018-09-13T00:42:00.184Z,4.828032
2018-09-13T00:42:12.581Z,6.437376
2018-09-13T00:42:24.996Z,8.04672
2018-09-13T00:42:37.400Z,9.656064
2018-09-13T00:42:49.810Z,6.437376
2018-09-13T00:43:02.209Z,8.04672
2018-09-13T00:43:14.602Z,8.04672
2018-09-13T00:43:26.998Z,6.437376
2018-09-13T00:43:39.414Z,6.437376
2018-09-13T00:43:51.823Z,3.218688
2018-09-13T00:44:04.215Z,4.828032
2018-09-13T00:44:16.613Z,8.04672
2018-09-13T00:44:29.024Z,4.828032
2018-09-13T00:44:41.441Z,8.04672
2018-09-13T00:44:53.834Z,6.437376
2018-09-13T00:45:06.291Z,6.437376
2018-09-13T00:45:18.693Z,6.437376
2018-09-13T00:45:31.098Z,4.828032
2018-09-13T00:45:43.482Z,8.04672
2018-09-13T00:45:55.883Z,6.437376
2018-09-13T00:46:08.289Z,8.04672
2018-09-13T00:46:20.684Z,8.04672
2018-09-13T00:46:33.094Z,9.656064
2018-09-13T00:46:45.491Z,6.437376
2018-09-13T00:46:57.879Z,6.437376
2018-09-13T00:47:10.306Z,6.437376
2018-09-13T00:47:22.739Z,3.218688
2018-09-13T00:47:35.177Z,6.437376
2018-09-13T00:47:47.571Z,11.265408
2018-09-13T00:47:59.963Z,11.265408
2018-09-13T00:48:12.379Z,9.656064
2018-09-13T00:48:24.769Z,4.828032
2018-09-13T00:48:37.189Z,6.437376
2018-09-13T00:48:49.796Z,6.437376
2018-09-13T00:49:02.212Z,8.04672
2018-09-13T00:49:14.770Z,6.437376
2018-09-13T00:49:27.229Z,8.04672
2018-09-13T00:49:39.617Z,6.437376
2018-09-13T00:49:52.000Z,1.609344
2018-09-13T00:50:04.413Z,6.437376
2018-09-13T00:50:16.827Z,4.828032
2018-09-13T00:50:29.207Z,3.218688
2018-09-13T00:50:41.637Z,3.218688
2018-09-13T00:50:54.034Z,3.218688
2018-09-13T00:51:06.452Z,3.218688
2018-09-13T00:51:18.857Z,1.609344
2018-09-13T00:51:31.242Z,4.828032
2018-09-13T00:51:43.631Z,4.828032
2018-09-13T00:51:56.018Z,6.437376
2018-09-13T00:52:08.396Z,6.437376
2018-09-13T00:52:20.778Z,3.218688
2018-09-13T00:52:33.184Z,3.218688
2018-09-13T00:52:45.603Z,4.828032
2018-09-13T00:52:57.987Z,3.218688
2018-09-13T00:53:10.421Z,1.609344
2018-09-13T00:53:23.016Z,1.609344
2018-09-13T00:53:35.417Z,3.218688
2018-09-13T00:53:47.819Z,3.218688
2018-09-13T00:54:00.230Z,3.218688
2018-09-13T00:54:12.621Z,3.218688
2018-09-13T00:54:25.015Z,1.609344
2018-09-13T00:54:37.453Z,0
2018-09-13T00:54:49.861Z,1.609344
2018-09-13T00:55:02.269Z,3.218688
2018-09-13T00:55:14.680Z,6.437376
2018-09-13T00:55:27.064Z,3.218688
2018-09-13T00:55:39.460Z,1.609344
2018-09-13T00:55:51.860Z,1.609344
2018-09-13T00:56:04.268Z,4.828032
2018-09-13T00:56:16.667Z,3.218688
2018-09-13T00:56:29.049Z,3.218688
2018-09-13T00:56:41.495Z,6.437376
2018-09-13T00:56:53.906Z,9.656064
2018-09-13T00:57:06.482Z,6.437376
2018-09-13T00:57:18.890Z,3.218688
2018-09-13T00:57:31.271Z,3.218688
2018-09-13T00:57:43.688Z,3.218688
2018-09-13T00:57:56.104Z,3.218688
2018-09-13T00:58:08.878Z,1.609344
2018-09-13T00:58:21.277Z,3.218688
2018-09-13T00:58:33.786Z,4.828032
2018-09-13T00:58:46.446Z,1.609344
2018-09-13T00:58:59.474Z,3.218688
2018-09-13T00:59:12.815Z,1.609344
2018-09-13T00:59:25.249Z,3.218688
2018-09-13T00:59:37.647Z,6.437376
2018-09-13T00:59:50.053Z,3.218688
2018-09-13T01:00:02.465Z,1.609344
2018-09-13T01:00:14.880Z,4.828032
2018-09-13T01:00:27.442Z,3.218688
2018-09-13T01:00:39.903Z,1.609344
2018-09-13T01:00:52.321Z,4.828032
2018-09-13T01:01:04.739Z,6.437376
2018-09-13T01:01:17.148Z,6.437376
2018-09-13T01:01:29.563Z,3.218688
2018-09-13T01:01:41.984Z,4.828032
2018-09-13T01:01:54.393Z,4.828032
2018-09-13T01:02:06.811Z,9.656064
2018-09-13T01:02:19.216Z,6.437376
2018-09-13T01:02:31.627Z,6.437376
2018-09-13T01:02:44.075Z,3.218688
2018-09-13T01:02:56.478Z,4.828032
2018-09-13T01:03:08.882Z,6.437376
2018-09-13T01:03:21.483Z,8.04672
2018-09-13T01:03:33.885Z,3.218688
2018-09-13T01:03:46.301Z,3.218688
2018-09-13T01:03:58.714Z,6.437376
2018-09-13T01:04:11.128Z,6.437376
2018-09-13T01:04:23.540Z,6.437376
2018-09-13T01:04:35.994Z,1.609344
2018-09-13T01:04:48.501Z,6.437376
2018-09-13T01:05:00.961Z,3.218688
2018-09-13T01:05:13.371Z,1.609344
2018-09-13T01:05:25.798Z,1.609344
2018-09-13T01:05:38.207Z,0
2018-09-13T01:05:50.655Z,0
2018-09-13T01:06:03.085Z,0
2018-09-13T01:06:15.511Z,3.218688
2018-09-13T01:06:27.922Z,3.218688
2018-09-13T01:06:40.473Z,3.218688
2018-09-13T01:06:52.886Z,6.437376
2018-09-13T01:07:05.345Z,4.828032
2018-09-13T01:07:17.758Z,3.218688
2018-09-13T01:07:30.146Z,3.218688
2018-09-13T01:07:42.533Z,3.218688
2018-09-13T01:07:54.944Z,3.218688
2018-09-13T01:08:07.360Z,6.437376
2018-09-13T01:08:19.771Z,3.218688
2018-09-13T01:08:32.187Z,3.218688
2018-09-13T01:08:44.590Z,3.218688
2018-09-13T01:08:56.998Z,3.218688
2018-09-13T01:09:09.405Z,3.218688
2018-09-13T01:09:21.816Z,3.218688
2018-09-13T01:09:34.247Z,1.609344
2018-09-13T01:09:46.645Z,1.609344
2018-09-13T01:09:59.033Z,1.609344
2018-09-13T01:10:11.519Z,3.218688
2018-09-13T01:10:24.091Z,1.609344
2018-09-13T01:10:36.500Z,0
2018-09-13T01:10:48.900Z,1.609344
2018-09-13T01:11:01.313Z,1.609344
2018-09-13T01:11:13.698Z,1.609344
2018-09-13T01:11:26.450Z,1.609344
2018-09-13T01:11:39.043Z,6.437376
2018-09-13T01:11:51.449Z,6.437376
2018-09-13T01:12:03.859Z,6.437376
2018-09-13T01:12:16.481Z,3.218688
2018-09-13T01:12:28.929Z,3.218688
2018-09-13T01:12:41.334Z,6.437376
2018-09-13T01:12:53.751Z,6.437376
2018-09-13T01:13:06.186Z,8.04672
2018-09-13T01:13:18.643Z,3.218688
2018-09-13T01:13:31.030Z,4.828032
2018-09-13T01:13:43.426Z,6.437376
2018-09-13T01:13:55.825Z,1.609344
2018-09-13T01:14:08.231Z,1.609344
2018-09-13T01:14:20.643Z,3.218688
2018-09-13T01:14:33.037Z,1.609344
2018-09-13T01:14:45.444Z,0
2018-09-13T01:14:57.839Z,1.609344
2018-09-13T01:15:10.243Z,1.609344
2018-09-13T01:15:22.678Z,3.218688
2018-09-13T01:15:35.088Z,6.437376
2018-09-13T01:15:47.557Z,8.04672
2018-09-13T01:15:59.957Z,8.04672
2018-09-13T01:16:12.358Z,8.04672
2018-09-13T01:16:24.747Z,8.04672
2018-09-13T01:16:37.169Z,9.656064
2018-09-13T01:16:49.599Z,3.218688
2018-09-13T01:17:01.992Z,9.656064
2018-09-13T01:17:14.399Z,8.04672
2018-09-13T01:17:26.787Z,1.609344
2018-09-13T01:17:39.177Z,1.609344
2018-09-13T01:17:51.570Z,6.437376
2018-09-13T01:18:03.970Z,3.218688
2018-09-13T01:18:16.536Z,6.437376
2018-09-13T01:18:28.948Z,8.04672
2018-09-13T01:18:41.394Z,6.437376
2018-09-13T01:18:53.795Z,9.656064
2018-09-13T01:19:06.191Z,6.437376
2018-09-13T01:19:18.580Z,6.437376
2018-09-13T01:19:30.985Z,3.218688
2018-09-13T01:19:43.386Z,3.218688
2018-09-13T01:19:55.788Z,6.437376
2018-09-13T01:20:08.179Z,3.218688
2018-09-13T01:20:20.569Z,1.609344
2018-09-13T01:20:32.968Z,6.437376
2018-09-13T01:20:45.341Z,3.218688
2018-09-13T01:20:57.727Z,6.437376
2018-09-13T01:21:10.279Z,6.437376
2018-09-13T01:21:22.683Z,3.218688
2018-09-13T01:21:35.090Z,8.04672
2018-09-13T01:21:47.563Z,6.437376
2018-09-13T01:21:59.965Z,3.218688
2018-09-13T01:22:12.390Z,3.218688
2018-09-13T01:22:24.778Z,1.609344
2018-09-13T01:22:37.441Z,1.609344
2018-09-13T01:22:49.864Z,3.218688
2018-09-13T01:23:02.256Z,3.218688
2018-09-13T01:23:14.793Z,3.218688
2018-09-13T01:23:27.189Z,4.828032
2018-09-13T01:23:39.581Z,3.218688
2018-09-13T01:23:51.981Z,3.218688
2018-09-13T01:24:04.599Z,1.609344
2018-09-13T01:24:16.987Z,0
2018-09-13T01:24:29.389Z,1.609344
2018-09-13T01:24:41.919Z,1.609344
2018-09-13T01:24:54.326Z,1.609344
2018-09-13T01:25:06.749Z,1.609344
2018-09-13T01:25:19.128Z,3.218688
2018-09-13T01:25:31.561Z,1.609344
2018-09-13T01:25:43.941Z,1.609344
2018-09-13T01:25:56.329Z,0
2018-09-13T01:26:08.711Z,1.609344
2018-09-13T01:26:21.114Z,3.218688
2018-09-13T01:26:33.531Z,4.828032
2018-09-13T01:26:45.927Z,6.437376
2018-09-13T01:26:58.559Z,4.828032
2018-09-13T01:27:10.983Z,1.609344
2018-09-13T01:27:23.407Z,1.609344
2018-09-13T01:27:35.857Z,0
2018-09-13T01:27:48.257Z,3.218688
2018-09-13T01:28:00.654Z,4.828032
2018-09-13T01:28:13.061Z,3.218688
2018-09-13T01:28:25.468Z,3.218688
2018-09-13T01:28:37.886Z,3.218688
2018-09-13T01:28:50.287Z,3.218688
2018-09-13T01:29:02.705Z,8.04672
2018-09-13T01:29:15.123Z,3.218688
2018-09-13T01:29:27.520Z,6.437376
2018-09-13T01:29:39.912Z,8.04672
2018-09-13T01:29:52.333Z,8.04672
2018-09-13T01:30:04.760Z,6.437376
2018-09-13T01:30:17.154Z,4.828032
2018-09-13T01:30:29.554Z,3.218688
2018-09-13T01:30:41.946Z,3.218688
2018-09-13T01:30:54.508Z,3.218688
2018-09-13T01:31:06.960Z,3.218688
2018-09-13T01:31:19.377Z,1.609344
2018-09-13T01:31:31.781Z,1.609344
2018-09-13T01:31:44.187Z,3.218688
2018-09-13T01:31:56.565Z,1.609344
2018-09-13T01:32:08.995Z,1.609344
2018-09-13T01:32:21.414Z,1.609344
2018-09-13T01:32:33.821Z,1.609344
2018-09-13T01:32:46.235Z,3.218688
2018-09-13T01:32:58.648Z,6.437376
2018-09-13T01:33:11.086Z,3.218688
2018-09-13T01:33:23.501Z,3.218688
2018-09-13T01:33:35.999Z,1.609344
2018-09-13T01:33:48.397Z,3.218688
2018-09-13T01:34:00.847Z,3.218688
2018-09-13T01:34:13.245Z,6.437376
2018-09-13T01:34:25.640Z,4.828032
2018-09-13T01:34:38.069Z,3.218688
2018-09-13T01:34:50.487Z,1.609344
2018-09-13T01:35:02.905Z,1.609344
2018-09-13T01:35:15.296Z,1.609344
2018-09-13T01:35:27.693Z,3.218688
2018-09-13T01:35:40.217Z,6.437376
2018-09-13T01:35:52.606Z,9.656064
2018-09-13T01:36:05.004Z,9.656064
2018-09-13T01:36:17.392Z,8.04672
2018-09-13T01:36:29.784Z,6.437376
2018-09-13T01:36:42.195Z,4.828032
2018-09-13T01:36:54.600Z,3.218688
2018-09-13T01:37:06.984Z,3.218688
2018-09-13T01:37:19.387Z,6.437376
2018-09-13T01:37:31.778Z,9.656064
2018-09-13T01:37:44.204Z,9.656064
2018-09-13T01:37:56.614Z,6.437376
2018-09-13T01:38:09.045Z,8.04672
2018-09-13T01:38:21.460Z,3.218688
2018-09-13T01:38:33.877Z,6.437376
2018-09-13T01:38:46.268Z,6.437376
2018-09-13T01:38:58.657Z,6.437376
2018-09-13T01:39:11.153Z,4.828032
2018-09-13T01:39:23.530Z,6.437376
2018-09-13T01:39:36.281Z,3.218688
2018-09-13T01:39:48.676Z,1.609344
2018-09-13T01:40:01.099Z,3.218688
2018-09-13T01:40:13.863Z,6.437376
2018-09-13T01:40:26.247Z,6.437376
2018-09-13T01:40:38.682Z,4.828032
2018-09-13T01:40:51.081Z,1.609344
2018-09-13T01:41:03.492Z,8.04672
2018-09-13T01:41:15.903Z,8.04672
2018-09-13T01:41:28.289Z,6.437376
2018-09-13T01:41:40.696Z,3.218688
2018-09-13T01:41:53.094Z,3.218688
2018-09-13T01:42:05.485Z,1.609344
2018-09-13T01:42:17.898Z,3.218688
2018-09-13T01:42:30.299Z,1.609344
2018-09-13T01:42:42.722Z,1.609344
2018-09-13T01:42:55.122Z,1.609344
2018-09-13T01:43:07.539Z,1.609344
2018-09-13T01:43:19.923Z,1.609344
2018-09-13T01:43:32.384Z,3.218688
2018-09-13T01:43:44.767Z,3.218688
2018-09-13T01:43:57.163Z,3.218688
2018-09-13T01:44:09.559Z,6.437376
2018-09-13T01:44:21.965Z,6.437376
2018-09-13T01:44:34.460Z,3.218688
2018-09-13T01:44:46.863Z,3.218688
2018-09-13T01:44:59.265Z,8.04672
2018-09-13T01:45:11.674Z,9.656064
2018-09-13T01:45:24.057Z,8.04672
2018-09-13T01:45:36.440Z,6.437376
2018-09-13T01:45:48.837Z,6.437376
2018-09-13T01:46:01.228Z,6.437376
2018-09-13T01:46:13.622Z,6.437376
2018-09-13T01:46:26.027Z,6.437376
2018-09-13T01:46:38.418Z,8.04672
2018-09-13T01:46:50.845Z,8.04672
2018-09-13T01:47:03.231Z,6.437376
2018-09-13T01:47:15.641Z,6.437376
2018-09-13T01:47:28.060Z,6.437376
2018-09-13T01:47:40.474Z,6.437376
2018-09-13T01:47:52.876Z,3.218688
2018-09-13T01:48:05.266Z,3.218688
2018-09-13T01:48:17.650Z,3.218688
2018-09-13T01:48:30.050Z,3.218688
2018-09-13T01:48:42.449Z,1.609344
2018-09-13T01:48:54.998Z,1.609344
2018-09-13T01:49:07.421Z,6.437376
2018-09-13T01:49:19.933Z,8.04672
2018-09-13T01:49:32.327Z,3.218688
2018-09-13T01:49:44.705Z,3.218688
2018-09-13T01:49:57.135Z,6.437376
2018-09-13T01:50:09.561Z,3.218688
2018-09-13T01:50:21.954Z,1.609344
2018-09-13T01:50:34.399Z,1.609344
2018-09-13T01:50:46.813Z,3.218688
2018-09-13T01:50:59.202Z,1.609344
2018-09-13T01:51:11.583Z,3.218688
2018-09-13T01:51:23.989Z,8.04672
2018-09-13T01:51:36.369Z,3.218688
2018-09-13T01:51:48.771Z,3.218688
2018-09-13T01:52:01.189Z,1.609344
2018-09-13T01:52:13.576Z,1.609344
2018-09-13T01:52:25.993Z,3.218688
2018-09-13T01:52:38.382Z,6.437376
2018-09-13T01:52:50.778Z,3.218688
2018-09-13T01:53:03.176Z,4.828032
2018-09-13T01:53:15.587Z,6.437376
2018-09-13T01:53:28.281Z,8.04672
2018-09-13T01:53:40.849Z,6.437376
2018-09-13T01:53:53.247Z,6.437376
2018-09-13T01:54:05.631Z,1.609344
2018-09-13T01:54:18.025Z,1.609344
2018-09-13T01:54:30.424Z,3.218688
2018-09-13T01:54:42.824Z,6.437376
2018-09-13T01:54:55.209Z,3.218688
2018-09-13T01:55:07.626Z,1.609344
2018-09-13T01:55:20.033Z,3.218688
2018-09-13T01:55:32.438Z,3.218688
2018-09-13T01:55:44.835Z,3.218688
2018-09-13T01:55:57.210Z,3.218688
2018-09-13T01:56:09.624Z,3.218688
2018-09-13T01:56:22.012Z,3.218688
2018-09-13T01:56:34.435Z,8.04672
2018-09-13T01:56:46.853Z,3.218688
2018-09-13T01:56:59.284Z,4.828032
2018-09-13T01:57:11.719Z,1.609344
2018-09-13T01:57:24.112Z,3.218688
2018-09-13T01:57:36.531Z,3.218688
2018-09-13T01:57:48.943Z,1.609344
2018-09-13T01:58:01.341Z,6.437376
2018-09-13T01:58:13.757Z,3.218688
2018-09-13T01:58:26.263Z,3.218688
2018-09-13T01:58:38.656Z,6.437376
2018-09-13T01:58:51.343Z,6.437376
2018-09-13T01:59:03.739Z,6.437376
2018-09-13T01:59:16.124Z,6.437376
2018-09-13T01:59:28.522Z,6.437376
2018-09-13T01:59:40.922Z,6.437376
2018-09-13T01:59:53.316Z,8.04672
2018-09-13T02:00:05.733Z,8.04672
2018-09-13T02:00:18.152Z,4.828032
2018-09-13T02:00:30.580Z,8.04672
2018-09-13T02:00:43.007Z,4.828032
2018-09-13T02:00:55.462Z,3.218688
2018-09-13T02:01:07.922Z,3.218688
2018-09-13T02:01:20.350Z,8.04672
2018-09-13T02:01:32.909Z,8.04672
2018-09-13T02:01:45.313Z,6.437376
2018-09-13T02:01:57.717Z,8.04672
2018-09-13T02:02:10.129Z,8.04672
2018-09-13T02:02:22.539Z,6.437376
2018-09-13T02:02:34.970Z,6.437376
2018-09-13T02:02:47.369Z,8.04672
2018-09-13T02:02:59.775Z,8.04672
2018-09-13T02:03:12.178Z,8.04672
2018-09-13T02:03:24.713Z,3.218688
2018-09-13T02:03:37.129Z,3.218688
2018-09-13T02:03:49.619Z,6.437376
2018-09-13T02:04:02.083Z,3.218688
2018-09-13T02:04:14.481Z,6.437376
2018-09-13T02:04:26.894Z,4.828032
2018-09-13T02:04:39.318Z,6.437376
2018-09-13T02:04:51.908Z,8.04672
2018-09-13T02:05:04.316Z,6.437376
2018-09-13T02:05:16.735Z,4.828032
2018-09-13T02:05:29.120Z,8.04672
2018-09-13T02:05:41.503Z,6.437376
2018-09-13T02:05:53.920Z,1.609344
2018-09-13T02:06:06.332Z,8.04672
2018-09-13T02:06:18.723Z,1.609344
2018-09-13T02:06:31.318Z,4.828032
2018-09-13T02:06:43.727Z,8.04672
2018-09-13T02:06:56.126Z,8.04672
2018-09-13T02:07:08.524Z,9.656064
2018-09-13T02:07:20.939Z,9.656064
2018-09-13T02:07:33.346Z,6.437376
2018-09-13T02:07:45.802Z,6.437376
2018-09-13T02:07:58.209Z,8.04672
2018-09-13T02:08:10.621Z,8.04672
2018-09-13T02:08:23.050Z,8.04672
2018-09-13T02:08:35.456Z,6.437376
2018-09-13T02:08:47.860Z,1.609344
2018-09-13T02:09:00.252Z,3.218688
2018-09-13T02:09:12.648Z,4.828032
2018-09-13T02:09:25.037Z,3.218688
2018-09-13T02:09:37.462Z,3.218688
2018-09-13T02:09:49.868Z,8.04672
2018-09-13T02:10:02.258Z,6.437376
2018-09-13T02:10:14.652Z,8.04672
2018-09-13T02:10:27.177Z,3.218688
2018-09-13T02:10:39.624Z,9.656064
2018-09-13T02:10:52.050Z,8.04672
2018-09-13T02:11:04.467Z,3.218688
2018-09-13T02:11:16.865Z,4.828032
2018-09-13T02:11:29.629Z,8.04672
2018-09-13T02:11:42.115Z,6.437376
2018-09-13T02:11:54.521Z,3.218688
2018-09-13T02:12:07.019Z,4.828032
2018-09-13T02:12:19.420Z,4.828032
2018-09-13T02:12:31.825Z,8.04672
2018-09-13T02:12:44.228Z,6.437376
2018-09-13T02:12:56.633Z,3.218688
2018-09-13T02:13:09.042Z,3.218688
2018-09-13T02:13:21.470Z,1.609344
2018-09-13T02:13:33.884Z,3.218688
2018-09-13T02:13:46.289Z,1.609344
2018-09-13T02:13:58.741Z,9.656064
2018-09-13T02:14:11.132Z,9.656064
2018-09-13T02:14:23.552Z,8.04672
2018-09-13T02:14:35.992Z,6.437376
2018-09-13T02:14:49.432Z,4.828032
2018-09-13T02:15:01.827Z,11.265408
2018-09-13T02:15:14.237Z,9.656064
2018-09-13T02:15:26.632Z,6.437376
2018-09-13T02:15:39.027Z,6.437376
2018-09-13T02:15:51.431Z,1.609344
2018-09-13T02:16:03.855Z,1.609344
2018-09-13T02:16:16.270Z,3.218688
2018-09-13T02:16:29.054Z,4.828032
2018-09-13T02:16:41.594Z,6.437376
2018-09-13T02:16:54.014Z,6.437376
2018-09-13T02:17:06.426Z,3.218688
2018-09-13T02:17:18.860Z,3.218688
2018-09-13T02:17:31.279Z,8.04672
2018-09-13T02:17:43.732Z,6.437376
2018-09-13T02:17:56.217Z,1.609344
2018-09-13T02:18:08.622Z,3.218688
2018-09-13T02:18:21.022Z,1.609344
2018-09-13T02:18:33.406Z,3.218688
2018-09-13T02:18:45.808Z,1.609344
2018-09-13T02:18:58.207Z,6.437376
2018-09-13T02:19:10.615Z,4.828032
2018-09-13T02:19:23.028Z,3.218688
2018-09-13T02:19:35.435Z,6.437376
2018-09-13T02:19:47.888Z,4.828032
2018-09-13T02:20:00.281Z,3.218688
2018-09-13T02:20:12.696Z,1.609344
2018-09-13T02:20:25.091Z,1.609344
2018-09-13T02:20:37.494Z,0
2018-09-13T02:20:49.895Z,1.609344
2018-09-13T02:21:02.392Z,3.218688
2018-09-13T02:21:14.790Z,4.828032
2018-09-13T02:21:27.182Z,1.609344
2018-09-13T02:21:39.988Z,1.609344
2018-09-13T02:21:52.391Z,1.609344
2018-09-13T02:22:04.808Z,1.609344
2018-09-13T02:22:17.202Z,0
2018-09-13T02:22:29.620Z,0
2018-09-13T02:22:42.106Z,0
2018-09-13T02:22:54.529Z,0
2018-09-13T02:23:06.933Z,1.609344
2018-09-13T02:23:19.438Z,1.609344
2018-09-13T02:23:31.847Z,0
2018-09-13T02:23:44.307Z,0
2018-09-13T02:23:56.756Z,1.609344
2018-09-13T02:24:09.278Z,1.609344
2018-09-13T02:24:21.680Z,3.218688
2018-09-13T02:24:34.065Z,3.218688
2018-09-13T02:24:46.467Z,1.609344
2018-09-13T02:24:58.881Z,3.218688
2018-09-13T02:25:11.558Z,1.609344
2018-09-13T02:25:23.961Z,1.609344
2018-09-13T02:25:36.371Z,0
2018-09-13T02:25:48.895Z,0
2018-09-13T02:26:01.305Z,1.609344
2018-09-13T02:26:13.689Z,1.609344
2018-09-13T02:26:26.084Z,8.04672
2018-09-13T02:26:38.497Z,9.656064
2018-09-13T02:26:50.921Z,9.656064
2018-09-13T02:27:03.302Z,4.828032
2018-09-13T02:27:15.712Z,1.609344
2018-09-13T02:27:28.124Z,3.218688
2018-09-13T02:27:40.537Z,1.609344
2018-09-13T02:27:52.976Z,3.218688
2018-09-13T02:28:05.393Z,6.437376
2018-09-13T02:28:17.808Z,1.609344
2018-09-13T02:28:30.199Z,3.218688